createdAt,value
2017-02-18T08:00:17.316Z,20.12
2017-02-18T08:01:27.931Z,20.38
2017-02-18T08:02:38.490Z,20.51
2017-02-18T08:03:49.013Z,20.69
2017-02-18T08:04:59.607Z,20.72
2017-02-18T08:06:10.200Z,20.89
2017-02-18T08:07:20.814Z,21.04
2017-02-18T08:08:31.486Z,21.13
2017-02-18T08:09:42.122Z,21.24
2017-02-18T08:10:52.700Z,21.2
2017-02-18T08:12:03.258Z,21.29
2017-02-18T08:13:13.837Z,21.41
2017-02-18T08:14:24.345Z,21.41
2017-02-18T08:15:34.871Z,21.48
2017-02-18T08:16:45.573Z,21.61
2017-02-18T08:17:56.234Z,21.72
2017-02-18T08:19:06.772Z,21.71
2017-02-18T08:20:17.363Z,21.78
2017-02-18T08:21:28.084Z,21.88
2017-02-18T08:22:38.637Z,22.04
2017-02-18T08:23:49.100Z,22.04
2017-02-18T08:24:59.925Z,22.07
2017-02-18T08:26:10.508Z,22.22
2017-02-18T08:27:21.128Z,22.16
2017-02-18T08:28:31.712Z,22.23
2017-02-18T08:29:42.225Z,22.27
2017-02-18T08:30:52.819Z,22.38
2017-02-18T08:32:03.330Z,22.32
2017-02-18T08:33:13.944Z,22.46
2017-02-18T08:34:24.447Z,22.47
2017-02-18T08:35:35.080Z,22.49
2017-02-18T08:36:45.923Z,22.52
2017-02-18T08:37:56.490Z,22.56
2017-02-18T08:39:07.073Z,22.59
2017-02-18T08:40:17.824Z,22.64
2017-02-18T08:41:28.482Z,22.69
2017-02-18T08:42:39.250Z,22.72
2017-02-18T08:43:49.847Z,22.78
2017-02-18T08:45:00.365Z,22.77
2017-02-18T08:46:11.072Z,22.78
2017-02-18T08:47:21.705Z,22.86
2017-02-18T08:48:32.492Z,22.83
2017-02-18T08:49:42.993Z,22.87
2017-02-18T08:50:53.511Z,22.93
2017-02-18T08:52:04.310Z,23.01
2017-02-18T08:53:14.858Z,22.97
2017-02-18T08:54:25.336Z,23.01
2017-02-18T08:55:36.010Z,23.11
2017-02-18T08:56:47.112Z,23.09
2017-02-18T08:57:57.620Z,23.09
2017-02-18T08:59:08.477Z,23.22
2017-02-18T09:00:19.095Z,23.35
2017-02-18T09:01:29.802Z,23.39
2017-02-18T09:02:40.355Z,23.49
2017-02-18T09:03:50.844Z,23.6
2017-02-18T09:05:01.772Z,23.75
2017-02-18T09:06:12.371Z,23.7
2017-02-18T09:07:22.889Z,23.71
2017-02-18T09:08:33.550Z,23.58
2017-02-18T09:09:44.094Z,23.65
2017-02-18T09:10:54.659Z,23.57
2017-02-18T09:12:05.893Z,23.6
2017-02-18T09:13:16.449Z,23.62
2017-02-18T09:14:26.942Z,23.6
2017-02-18T09:15:37.459Z,23.5
2017-02-18T09:16:47.995Z,23.45
2017-02-18T09:17:58.499Z,23.45
2017-02-18T09:19:09.179Z,23.5
2017-02-18T09:20:19.933Z,23.4
2017-02-18T09:21:30.481Z,23.47
2017-02-18T09:22:41.092Z,23.49
2017-02-18T09:23:51.615Z,23.52
2017-02-18T09:25:02.213Z,23.55
2017-02-18T09:26:12.857Z,23.6
2017-02-18T09:27:23.470Z,23.49
2017-02-18T09:28:34.025Z,23.57
2017-02-18T09:29:44.615Z,23.5
2017-02-18T09:30:55.206Z,23.53
2017-02-18T09:32:05.704Z,23.71
2017-02-18T09:33:16.226Z,23.77
2017-02-18T09:34:26.768Z,23.95
2017-02-18T09:35:37.372Z,24.08
2017-02-18T09:36:47.965Z,23.95
2017-02-18T09:37:58.470Z,23.97
2017-02-18T09:39:09.088Z,23.9
2017-02-18T09:40:19.755Z,23.85
2017-02-18T09:41:30.529Z,23.77
2017-02-18T09:42:41.078Z,23.75
2017-02-18T09:43:51.761Z,23.77
2017-02-18T09:45:02.388Z,23.76
2017-02-18T09:46:12.897Z,23.75
2017-02-18T09:47:24.015Z,23.77
2017-02-18T09:48:34.719Z,23.75
2017-02-18T09:49:45.856Z,23.82
2017-02-18T09:50:56.441Z,23.97
2017-02-18T09:52:07.050Z,23.98
2017-02-18T09:53:17.723Z,24.1
2017-02-18T09:54:28.242Z,24.05
2017-02-18T09:55:38.826Z,24.04
2017-02-18T09:56:49.564Z,23.92
2017-02-18T09:58:00.259Z,23.94
2017-02-18T09:59:10.850Z,23.83
2017-02-18T10:00:21.408Z,23.83
2017-02-18T10:01:31.928Z,23.83
2017-02-18T10:02:42.509Z,23.71
2017-02-18T10:03:53.030Z,23.68
2017-02-18T10:05:03.557Z,23.65
2017-02-18T10:06:14.160Z,23.61
2017-02-18T10:07:24.829Z,23.57
2017-02-18T10:08:35.392Z,23.55
2017-02-18T10:09:45.941Z,23.62
2017-02-18T10:10:56.670Z,23.6
2017-02-18T10:12:07.178Z,23.61
2017-02-18T10:13:17.749Z,23.67
2017-02-18T10:14:28.623Z,23.6
2017-02-18T10:15:39.273Z,23.67
2017-02-18T10:16:50.083Z,23.68
2017-02-18T10:18:00.767Z,23.71
2017-02-18T10:19:11.333Z,23.67
2017-02-18T10:20:21.891Z,23.7
2017-02-18T10:21:32.412Z,23.67
2017-02-18T10:22:42.917Z,23.8
2017-02-18T10:23:53.504Z,23.75
2017-02-18T10:25:04.081Z,23.75
2017-02-18T10:26:14.633Z,23.77
2017-02-18T10:27:25.303Z,23.87
2017-02-18T10:28:36.038Z,23.85
2017-02-18T10:29:46.552Z,23.86
2017-02-18T10:30:57.139Z,23.94
2017-02-18T10:32:07.731Z,23.87
2017-02-18T10:33:18.229Z,24
2017-02-18T10:34:28.820Z,24.04
2017-02-18T10:35:39.529Z,24.12
2017-02-18T10:36:50.114Z,24.1
2017-02-18T10:38:00.639Z,24.04
2017-02-18T10:39:11.174Z,24.08
2017-02-18T10:40:21.693Z,24.12
2017-02-18T10:41:32.165Z,24.08
2017-02-18T10:42:42.744Z,24.1
2017-02-18T10:43:53.256Z,24.08
2017-02-18T10:45:03.870Z,24.08
2017-02-18T10:46:14.391Z,24.07
2017-02-18T10:47:24.927Z,24.12
2017-02-18T10:48:35.451Z,24.14
2017-02-18T10:49:46.070Z,24.12
2017-02-18T10:50:56.608Z,24.1
2017-02-18T10:52:07.158Z,24.12
2017-02-18T10:53:17.757Z,24.05
2017-02-18T10:54:28.310Z,24.12
2017-02-18T10:55:38.856Z,24.07
2017-02-18T10:56:49.385Z,24.12
2017-02-18T10:58:00.035Z,24.23
2017-02-18T10:59:10.623Z,24.13
2017-02-18T11:00:21.350Z,24.12
2017-02-18T11:01:31.911Z,24.19
2017-02-18T11:02:42.408Z,24.17
2017-02-18T11:03:52.880Z,24.19
2017-02-18T11:05:03.403Z,24.26
2017-02-18T11:06:14.014Z,24.17
2017-02-18T11:07:24.532Z,24.14
2017-02-18T11:08:35.052Z,24.17
2017-02-18T11:09:45.566Z,24.19
2017-02-18T11:10:56.228Z,24.16
2017-02-18T11:12:06.807Z,24.26
2017-02-18T11:13:17.338Z,24.22
2017-02-18T11:14:27.966Z,24.2
2017-02-18T11:15:38.542Z,24.23
2017-02-18T11:16:49.106Z,24.22
2017-02-18T11:17:59.837Z,24.29
2017-02-18T11:19:10.517Z,24.31
2017-02-18T11:20:21.339Z,24.32
2017-02-18T11:21:32.081Z,24.41
2017-02-18T11:22:42.724Z,24.34
2017-02-18T11:23:53.361Z,24.32
2017-02-18T11:25:04.001Z,24.35
2017-02-18T11:26:14.475Z,24.41
2017-02-18T11:27:25.135Z,24.39
2017-02-18T11:28:35.975Z,24.49
2017-02-18T11:29:46.524Z,24.39
2017-02-18T11:30:57.032Z,24.29
2017-02-18T11:32:07.823Z,24.39
2017-02-18T11:33:18.404Z,24.34
2017-02-18T11:34:28.909Z,24.35
2017-02-18T11:35:39.421Z,24.49
2017-02-18T11:36:50.027Z,24.53
2017-02-18T11:38:00.780Z,24.6
2017-02-18T11:39:11.388Z,24.68
2017-02-18T11:40:21.876Z,24.61
2017-02-18T11:41:32.394Z,24.63
2017-02-18T11:42:42.933Z,24.61
2017-02-18T11:43:53.571Z,24.63
2017-02-18T11:45:04.120Z,24.59
2017-02-18T11:46:15.176Z,24.61
2017-02-18T11:47:25.942Z,24.56
2017-02-18T11:48:36.824Z,24.56
2017-02-18T11:49:48.120Z,24.56
2017-02-18T11:50:59.321Z,24.63
2017-02-18T11:52:10.517Z,24.67
2017-02-18T11:53:21.278Z,24.64
2017-02-18T11:54:31.964Z,24.67
2017-02-18T11:55:42.596Z,24.68
2017-02-18T11:56:53.803Z,24.64
2017-02-18T11:58:04.392Z,24.6
2017-02-18T11:59:14.927Z,24.61
2017-02-18T12:00:25.484Z,24.64
2017-02-18T12:01:36.078Z,24.61
2017-02-18T12:02:46.594Z,24.67
2017-02-18T12:03:57.183Z,24.61
2017-02-18T12:05:07.872Z,24.73
2017-02-18T12:06:18.470Z,24.63
2017-02-18T12:07:28.947Z,24.67
2017-02-18T12:08:39.549Z,24.63
2017-02-18T12:09:50.199Z,24.64
2017-02-18T12:11:00.814Z,24.6
2017-02-18T12:12:11.366Z,24.67
2017-02-18T12:13:21.953Z,24.63
2017-02-18T12:14:32.507Z,24.67
2017-02-18T12:15:43.149Z,24.59
2017-02-18T12:16:53.627Z,24.54
2017-02-18T12:18:04.150Z,24.69
2017-02-18T12:19:14.853Z,24.69
2017-02-18T12:20:25.404Z,24.68
2017-02-18T12:21:35.967Z,24.71
2017-02-18T12:22:46.445Z,24.63
2017-02-18T12:23:57.003Z,24.61
2017-02-18T12:25:07.533Z,24.63
2017-02-18T12:26:18.124Z,24.71
2017-02-18T12:27:28.923Z,24.8
2017-02-18T12:28:39.488Z,24.77
2017-02-18T12:29:50.110Z,24.8
2017-02-18T12:31:00.658Z,24.75
2017-02-18T12:32:11.218Z,24.67
2017-02-18T12:33:21.702Z,24.59
2017-02-18T12:34:32.252Z,24.71
2017-02-18T12:35:42.785Z,24.75
2017-02-18T12:36:53.355Z,24.61
2017-02-18T12:38:03.900Z,24.63
2017-02-18T12:39:14.395Z,24.71
2017-02-18T12:40:24.911Z,24.68
2017-02-18T12:41:35.425Z,24.73
2017-02-18T12:42:45.940Z,24.83
2017-02-18T12:43:56.602Z,24.92
2017-02-18T12:45:07.078Z,24.79
2017-02-18T12:46:17.591Z,24.68
2017-02-18T12:47:28.167Z,24.64
2017-02-18T12:48:38.663Z,24.76
2017-02-18T12:49:49.277Z,24.77
2017-02-18T12:50:59.820Z,24.92
2017-02-18T12:52:10.418Z,24.92
2017-02-18T12:53:21.250Z,24.87
2017-02-18T12:54:31.886Z,24.91
2017-02-18T12:55:42.637Z,24.88
2017-02-18T12:56:53.410Z,24.91
2017-02-18T12:58:04.060Z,24.87
2017-02-18T12:59:14.679Z,24.91
2017-02-18T13:00:25.420Z,24.94
2017-02-18T13:01:36.049Z,24.94
2017-02-18T13:02:46.617Z,24.94
2017-02-18T13:03:57.159Z,24.91
2017-02-18T13:05:07.873Z,24.9
2017-02-18T13:06:18.346Z,24.88
2017-02-18T13:07:28.878Z,24.9
2017-02-18T13:08:39.409Z,24.87
2017-02-18T13:09:49.944Z,24.9
2017-02-18T13:11:00.569Z,24.88
2017-02-18T13:12:11.328Z,24.92
2017-02-18T13:13:21.879Z,24.94
2017-02-18T13:14:32.422Z,25
2017-02-18T13:15:42.983Z,25.02
2017-02-18T13:16:53.584Z,25.01
2017-02-18T13:18:04.220Z,25.01
2017-02-18T13:19:14.785Z,25.01
2017-02-18T13:20:25.260Z,25.05
2017-02-18T13:21:35.937Z,24.97
2017-02-18T13:22:46.450Z,24.88
2017-02-18T13:23:57.010Z,24.88
2017-02-18T13:25:07.721Z,24.85
2017-02-18T13:26:18.488Z,24.88
2017-02-18T13:27:29.234Z,24.83
2017-02-18T13:28:40.018Z,24.94
2017-02-18T13:29:50.748Z,25.01
2017-02-18T13:31:01.570Z,25.09
2017-02-18T13:32:12.365Z,25.09
2017-02-18T13:33:23.172Z,25.02
2017-02-18T13:34:33.781Z,25.06
2017-02-18T13:35:44.769Z,25.07
2017-02-18T13:36:55.637Z,25.06
2017-02-18T13:38:06.687Z,25.07
2017-02-18T13:39:17.539Z,25.1
2017-02-18T13:40:28.270Z,25.06
2017-02-18T13:41:39.068Z,24.95
2017-02-18T13:42:50.012Z,25.06
2017-02-18T13:44:01.137Z,25.07
2017-02-18T13:45:12.378Z,25.02
2017-02-18T13:46:23.036Z,25.02
2017-02-18T13:47:33.797Z,24.94
2017-02-18T13:48:44.479Z,24.94
2017-02-18T13:49:55.330Z,24.97
2017-02-18T13:51:05.918Z,25.02
2017-02-18T13:52:16.552Z,25.05
2017-02-18T13:53:27.161Z,25.07
2017-02-18T13:54:37.691Z,25.07
2017-02-18T13:55:48.230Z,25.01
2017-02-18T13:56:58.926Z,25.06
2017-02-18T13:58:09.816Z,24.94
2017-02-18T13:59:20.321Z,25.05
2017-02-18T14:00:30.946Z,24.97
2017-02-18T14:01:41.485Z,25.1
2017-02-18T14:02:52.122Z,24.94
2017-02-18T14:04:02.765Z,24.94
2017-02-18T14:05:13.629Z,24.91
2017-02-18T14:06:24.213Z,24.92
2017-02-18T14:07:34.976Z,24.87
2017-02-18T14:08:45.680Z,24.87
2017-02-18T14:09:59.463Z,24.88
2017-02-18T14:11:10.218Z,24.87
2017-02-18T14:12:20.863Z,24.9
2017-02-18T14:13:31.696Z,24.88
2017-02-18T14:14:42.506Z,24.95
2017-02-18T14:15:53.677Z,24.88
2017-02-18T14:17:04.476Z,24.87
2017-02-18T14:18:15.355Z,24.85
2017-02-18T14:19:26.705Z,24.87
2017-02-18T14:20:37.364Z,24.85
2017-02-18T14:21:48.114Z,24.83
2017-02-18T14:22:58.781Z,24.87
2017-02-18T14:24:09.532Z,24.76
2017-02-18T14:25:20.276Z,24.83
2017-02-18T14:26:30.935Z,24.77
2017-02-18T14:27:41.644Z,24.85
2017-02-18T14:28:52.299Z,24.76
2017-02-18T14:30:02.864Z,24.82
2017-02-18T14:31:13.370Z,24.75
2017-02-18T14:32:23.968Z,24.69
2017-02-18T14:33:34.726Z,24.67
2017-02-18T14:34:45.409Z,24.82
2017-02-18T14:35:56.178Z,24.91
2017-02-18T14:37:06.855Z,24.92
2017-02-18T14:38:17.516Z,24.94
2017-02-18T14:39:28.559Z,25
2017-02-18T14:40:39.480Z,24.97
2017-02-18T14:41:49.994Z,24.95
2017-02-18T14:43:00.699Z,24.94
2017-02-18T14:44:12.226Z,24.91
2017-02-18T14:45:22.852Z,24.94
2017-02-18T14:46:33.487Z,24.94
2017-02-18T14:47:44.022Z,24.88
2017-02-18T14:48:54.573Z,24.94
2017-02-18T14:50:05.397Z,24.94
2017-02-18T14:51:16.213Z,24.88
2017-02-18T14:52:27.112Z,24.9
2017-02-18T14:53:37.693Z,24.94
2017-02-18T14:54:48.811Z,24.9
2017-02-18T14:55:59.376Z,24.91
2017-02-18T14:57:09.951Z,24.98
2017-02-18T14:58:20.536Z,25.05
2017-02-18T14:59:31.897Z,25.06
2017-02-18T15:00:42.447Z,25.13
2017-02-18T15:01:53.310Z,25.16
2017-02-18T15:03:04.059Z,25.2
2017-02-18T15:04:14.986Z,25.2
2017-02-18T15:05:25.667Z,25.22
2017-02-18T15:06:36.276Z,25.15
2017-02-18T15:07:46.937Z,25.28
2017-02-18T15:08:57.770Z,25.27
2017-02-18T15:10:08.603Z,25.31
2017-02-18T15:11:19.311Z,25.3
2017-02-18T15:12:29.982Z,25.37
2017-02-18T15:13:40.711Z,25.3
2017-02-18T15:14:51.184Z,25.34
2017-02-18T15:16:01.963Z,25.32
2017-02-18T15:17:12.590Z,25.22
2017-02-18T15:18:23.107Z,25.32
2017-02-18T15:19:33.641Z,25.19
2017-02-18T15:20:44.229Z,25.22
2017-02-18T15:21:55.282Z,25.28
2017-02-18T15:23:05.876Z,25.15
2017-02-18T15:24:22.938Z,25.28
2017-02-18T15:25:33.664Z,25.16
2017-02-18T15:26:44.513Z,25.01
2017-02-18T15:27:55.114Z,25
2017-02-18T15:29:05.756Z,24.91
2017-02-18T15:30:17.455Z,24.9
2017-02-18T15:31:28.414Z,24.82
2017-02-18T15:32:39.116Z,24.73
2017-02-18T15:33:49.873Z,24.68
2017-02-18T15:35:00.411Z,24.68
